createdAt,value
2019-01-30T00:01:42.101Z,15.73
2019-01-30T00:04:11.273Z,19.43
2019-01-30T00:06:40.510Z,22.83
2019-01-30T00:09:10.469Z,20.47
2019-01-30T00:11:39.546Z,17.77
2019-01-30T00:14:08.603Z,19.87
2019-01-30T00:16:37.685Z,19.20
2019-01-30T00:19:06.861Z,18.97
2019-01-30T00:21:35.955Z,22.63
2019-01-30T00:24:05.221Z,20.03
2019-01-30T00:26:34.371Z,25.07
2019-01-30T00:29:03.525Z,23.43
2019-01-30T00:31:32.612Z,19.40
2019-01-30T00:34:01.744Z,25.00
2019-01-30T00:36:30.803Z,21.90
2019-01-30T00:38:59.917Z,20.10
2019-01-30T00:41:28.928Z,18.57
2019-01-30T00:43:58.156Z,23.93
2019-01-30T00:46:27.395Z,24.07
2019-01-30T00:48:56.538Z,23.70
2019-01-30T00:51:25.618Z,21.70
2019-01-30T00:53:54.792Z,23.37
2019-01-30T00:56:23.903Z,23.10
2019-01-30T00:58:52.974Z,20.13
2019-01-30T01:01:22.065Z,27.57
2019-01-30T01:03:51.075Z,21.47
2019-01-30T01:06:20.294Z,18.93
2019-01-30T01:08:49.391Z,19.67
2019-01-30T01:11:18.554Z,20.17
2019-01-30T01:13:47.733Z,20.50
2019-01-30T01:16:16.892Z,19.97
2019-01-30T01:18:45.932Z,21.73
2019-01-30T01:21:15.106Z,20.80
2019-01-30T01:23:44.133Z,22.67
2019-01-30T01:26:13.164Z,19.93
2019-01-30T01:28:42.201Z,21.23
2019-01-30T01:31:11.354Z,25.93
2019-01-30T01:33:40.538Z,22.83
2019-01-30T01:36:09.748Z,22.10
2019-01-30T01:38:38.742Z,19.40
2019-01-30T01:41:07.811Z,20.13
2019-01-30T01:43:36.956Z,21.50
2019-01-30T01:46:06.645Z,24.47
2019-01-30T01:48:35.675Z,21.50
2019-01-30T01:51:04.778Z,23.47
2019-01-30T01:53:33.859Z,25.47
2019-01-30T01:56:03.030Z,21.63
2019-01-30T01:58:32.096Z,22.50
2019-01-30T02:01:01.157Z,28.77
2019-01-30T02:03:31.286Z,20.90
2019-01-30T02:06:00.352Z,22.63
2019-01-30T02:08:29.480Z,21.73
2019-01-30T02:10:58.641Z,28.10
2019-01-30T02:13:27.745Z,24.30
2019-01-30T02:15:56.793Z,25.27
2019-01-30T02:18:25.811Z,21.40
2019-01-30T02:20:54.913Z,22.93
2019-01-30T02:23:24.043Z,24.70
2019-01-30T02:25:53.136Z,20.50
2019-01-30T02:28:22.333Z,23.37
2019-01-30T02:30:51.430Z,25.63
2019-01-30T02:33:20.499Z,22.27
2019-01-30T02:35:49.592Z,23.00
2019-01-30T02:38:18.626Z,20.33
2019-01-30T02:40:47.813Z,21.30
2019-01-30T02:43:16.844Z,22.07
2019-01-30T02:45:45.940Z,20.57
2019-01-30T02:48:15.020Z,21.87
2019-01-30T02:50:45.379Z,20.67
2019-01-30T02:53:14.490Z,23.03
2019-01-30T02:55:43.713Z,22.83
2019-01-30T02:58:12.707Z,21.57
2019-01-30T03:00:41.955Z,20.60
2019-01-30T03:03:11.057Z,22.07
2019-01-30T03:05:40.174Z,24.87
2019-01-30T03:08:09.376Z,20.03
2019-01-30T03:10:38.565Z,23.00
2019-01-30T03:13:08.089Z,22.73
2019-01-30T03:15:37.212Z,19.33
2019-01-30T03:18:06.699Z,22.20
2019-01-30T03:20:35.781Z,23.63
2019-01-30T03:23:06.039Z,22.93
2019-01-30T03:25:35.133Z,22.93
2019-01-30T03:28:04.668Z,26.90
2019-01-30T03:30:33.841Z,22.07
2019-01-30T03:33:02.995Z,23.73
2019-01-30T03:35:32.493Z,24.20
2019-01-30T03:38:01.969Z,22.93
2019-01-30T03:40:31.138Z,23.47
2019-01-30T03:43:00.232Z,27.03
2019-01-30T03:45:29.533Z,20.77
2019-01-30T03:47:58.529Z,22.60
2019-01-30T03:50:27.650Z,21.23
2019-01-30T03:52:56.681Z,24.87
2019-01-30T03:55:25.903Z,19.73
2019-01-30T03:57:54.894Z,21.83
2019-01-30T04:00:25.435Z,18.53
2019-01-30T04:02:54.844Z,26.67
2019-01-30T04:05:24.196Z,24.70
2019-01-30T04:07:53.397Z,18.73
2019-01-30T04:10:23.024Z,19.03
2019-01-30T04:12:52.275Z,18.73
2019-01-30T04:15:21.931Z,21.57
2019-01-30T04:17:51.150Z,20.10
2019-01-30T04:20:20.732Z,21.10
2019-01-30T04:22:49.865Z,20.33
2019-01-30T04:25:19.164Z,20.00
2019-01-30T04:27:48.339Z,17.03
2019-01-30T04:30:22.379Z,22.27
2019-01-30T04:32:51.566Z,19.97
2019-01-30T04:35:20.832Z,21.43
2019-01-30T04:37:49.923Z,18.70
2019-01-30T04:40:20.221Z,18.37
2019-01-30T04:42:49.314Z,20.13
2019-01-30T04:45:21.113Z,19.07
2019-01-30T04:47:50.300Z,18.67
2019-01-30T04:50:19.471Z,18.07
2019-01-30T04:52:48.642Z,19.00
2019-01-30T04:55:18.262Z,20.70
2019-01-30T04:57:47.462Z,20.20
2019-01-30T05:00:19.260Z,17.87
2019-01-30T05:02:48.387Z,21.80
2019-01-30T05:05:20.046Z,19.17
2019-01-30T05:07:49.245Z,18.60
2019-01-30T05:10:18.326Z,17.63
2019-01-30T05:12:47.515Z,18.63
2019-01-30T05:15:18.047Z,17.30
2019-01-30T05:17:47.345Z,16.83
2019-01-30T05:20:17.762Z,18.20
2019-01-30T05:22:48.471Z,22.17
2019-01-30T05:25:18.006Z,16.83
2019-01-30T05:27:47.170Z,20.87
2019-01-30T05:30:23.893Z,18.10
2019-01-30T05:32:52.976Z,23.30
2019-01-30T05:35:22.056Z,19.93
2019-01-30T05:37:51.571Z,19.57
2019-01-30T05:40:21.234Z,18.33
2019-01-30T05:42:50.369Z,19.23
2019-01-30T05:45:20.005Z,15.90
2019-01-30T05:47:49.399Z,16.63
2019-01-30T05:50:18.565Z,20.63
2019-01-30T05:52:48.496Z,16.73
2019-01-30T05:55:18.362Z,16.67
2019-01-30T05:57:47.432Z,15.13
2019-01-30T06:00:19.820Z,20.20
2019-01-30T06:02:48.880Z,19.00
2019-01-30T06:05:18.048Z,21.83
2019-01-30T06:07:47.020Z,22.60
2019-01-30T06:10:16.168Z,20.87
2019-01-30T06:12:45.344Z,20.40
2019-01-30T06:15:15.008Z,23.40
2019-01-30T06:17:44.084Z,18.23
2019-01-30T06:20:16.182Z,19.03
2019-01-30T06:22:45.666Z,16.30
2019-01-30T06:25:14.814Z,22.07
2019-01-30T06:27:43.981Z,19.80
2019-01-30T06:30:14.772Z,18.20
2019-01-30T06:32:43.885Z,16.17
2019-01-30T06:35:14.531Z,20.40
2019-01-30T06:37:45.373Z,23.97
2019-01-30T06:40:29.050Z,18.90
2019-01-30T06:42:58.200Z,18.47
2019-01-30T06:45:27.469Z,17.40
2019-01-30T06:47:56.625Z,18.23
2019-01-30T06:50:25.805Z,15.73
2019-01-30T06:52:54.878Z,19.43
2019-01-30T06:55:24.244Z,18.63
2019-01-30T06:57:54.604Z,15.77
2019-01-30T07:00:27.787Z,16.23
2019-01-30T07:02:58.042Z,20.97
2019-01-30T07:05:27.229Z,20.33
2019-01-30T07:07:57.342Z,18.60
2019-01-30T07:10:28.318Z,18.17
2019-01-30T07:12:57.548Z,16.93
2019-01-30T07:15:26.764Z,19.10
2019-01-30T07:17:55.854Z,18.20
2019-01-30T07:20:25.321Z,17.60
2019-01-30T07:22:54.508Z,19.50
2019-01-30T07:25:27.737Z,17.30
2019-01-30T07:27:58.727Z,22.03
2019-01-30T07:30:30.275Z,18.53
2019-01-30T07:32:59.476Z,25.23
2019-01-30T07:35:28.596Z,23.57
2019-01-30T07:37:58.771Z,21.10
2019-01-30T07:40:28.102Z,22.00
2019-01-30T07:42:57.326Z,19.17
2019-01-30T07:45:27.837Z,20.87
2019-01-30T07:47:56.909Z,17.17
2019-01-30T07:50:26.183Z,20.10
2019-01-30T07:52:55.450Z,22.00
2019-01-30T07:55:27.568Z,23.93
2019-01-30T07:57:56.791Z,19.47
2019-01-30T08:00:31.612Z,20.17
2019-01-30T08:03:00.788Z,22.00
2019-01-30T08:05:29.981Z,26.17
2019-01-30T08:07:59.759Z,23.13
2019-01-30T08:10:29.040Z,24.90
2019-01-30T08:12:58.259Z,26.40
2019-01-30T08:15:27.651Z,23.13
2019-01-30T08:18:15.877Z,25.70
2019-01-30T08:20:45.881Z,24.20
2019-01-30T08:23:15.090Z,24.90
2019-01-30T08:25:44.385Z,27.20
2019-01-30T08:28:15.964Z,22.60
2019-01-30T08:30:44.623Z,21.97
2019-01-30T08:33:13.814Z,24.93
2019-01-30T08:35:42.990Z,23.30
2019-01-30T08:38:12.128Z,25.47
2019-01-30T08:40:41.243Z,24.03
2019-01-30T08:43:10.489Z,24.00
2019-01-30T08:45:39.570Z,22.03
2019-01-30T08:48:08.749Z,25.10
2019-01-30T08:50:37.902Z,24.27
2019-01-30T08:53:07.087Z,19.97
2019-01-30T08:55:36.199Z,20.30
2019-01-30T08:58:05.893Z,21.67
2019-01-30T09:00:35.096Z,22.83
2019-01-30T09:03:14.212Z,22.90
2019-01-30T09:05:36.363Z,19.77
2019-01-30T09:08:05.797Z,22.17
2019-01-30T09:10:35.029Z,23.03
2019-01-30T09:13:04.297Z,26.30
2019-01-30T09:15:33.432Z,20.83
2019-01-30T09:18:02.529Z,23.53
2019-01-30T09:20:31.701Z,26.37
2019-01-30T09:23:00.776Z,21.90
2019-01-30T09:25:30.637Z,24.10
2019-01-30T09:28:01.142Z,21.80
2019-01-30T09:30:37.075Z,24.17
2019-01-30T09:33:08.594Z,23.03
2019-01-30T09:35:37.674Z,18.87
2019-01-30T09:38:07.323Z,19.90
2019-01-30T09:40:36.475Z,24.63
2019-01-30T09:43:06.134Z,21.97
2019-01-30T09:45:35.280Z,23.50
2019-01-30T09:48:04.633Z,22.27
2019-01-30T09:50:34.441Z,21.67
2019-01-30T09:53:04.682Z,20.90
2019-01-30T09:55:33.824Z,19.90
2019-01-30T09:58:03.276Z,24.53
2019-01-30T10:00:34.500Z,21.50
2019-01-30T10:03:03.677Z,22.83
2019-01-30T10:05:33.376Z,23.63
2019-01-30T10:08:03.619Z,18.23
2019-01-30T10:10:34.807Z,20.30
2019-01-30T10:13:04.607Z,18.23
2019-01-30T10:15:36.531Z,17.90
2019-01-30T10:18:06.273Z,16.80
2019-01-30T10:20:36.045Z,17.20
2019-01-30T10:23:05.644Z,18.67
2019-01-30T10:25:34.881Z,16.80
2019-01-30T10:28:15.691Z,21.03
2019-01-30T10:30:37.173Z,19.27
2019-01-30T10:33:06.586Z,16.43
2019-01-30T10:35:35.874Z,15.77
2019-01-30T10:38:07.554Z,21.17
2019-01-30T10:40:36.410Z,18.97
2019-01-30T10:43:06.389Z,17.10
2019-01-30T10:45:38.099Z,18.23
2019-01-30T10:48:06.495Z,15.33
2019-01-30T10:50:36.016Z,15.73
2019-01-30T10:53:05.478Z,14.03
2019-01-30T10:55:34.970Z,16.57
2019-01-30T10:58:06.944Z,14.90
2019-01-30T11:00:39.306Z,12.63
2019-01-30T11:03:08.343Z,15.50
2019-01-30T11:05:37.943Z,12.93
2019-01-30T11:08:07.505Z,14.50
2019-01-30T11:10:36.589Z,11.43
2019-01-30T11:13:06.605Z,13.73
2019-01-30T11:15:37.050Z,13.50
2019-01-30T11:18:09.114Z,11.43
2019-01-30T11:20:38.320Z,13.57
2019-01-30T11:23:07.608Z,17.13
2019-01-30T11:25:37.866Z,15.13
2019-01-30T11:28:07.036Z,11.43
2019-01-30T11:30:36.137Z,10.30
2019-01-30T11:33:05.578Z,14.90
2019-01-30T11:35:34.928Z,13.23
2019-01-30T11:38:04.425Z,12.47
2019-01-30T11:40:33.676Z,15.37
2019-01-30T11:43:02.840Z,14.10
2019-01-30T11:45:39.675Z,19.90
2019-01-30T11:48:09.449Z,15.60
2019-01-30T11:50:40.015Z,16.90
2019-01-30T11:53:09.409Z,13.00
2019-01-30T11:55:39.050Z,18.43
2019-01-30T11:58:08.951Z,16.87
2019-01-30T12:00:42.086Z,15.90
2019-01-30T12:03:11.112Z,14.83
2019-01-30T12:05:40.755Z,14.00
2019-01-30T12:08:09.985Z,14.43
2019-01-30T12:10:39.138Z,17.00
2019-01-30T12:13:08.210Z,15.60
2019-01-30T12:15:38.672Z,18.70
2019-01-30T12:18:08.020Z,14.37
2019-01-30T12:20:37.127Z,17.33
2019-01-30T12:23:06.730Z,15.70
2019-01-30T12:25:35.884Z,18.57
2019-01-30T12:28:05.342Z,14.23
2019-01-30T12:30:34.548Z,17.60
2019-01-30T12:33:03.632Z,14.70
2019-01-30T12:35:32.705Z,16.07
2019-01-30T12:38:02.021Z,13.77
2019-01-30T12:40:31.136Z,13.63
2019-01-30T12:43:00.400Z,13.93
2019-01-30T12:45:31.685Z,15.60
2019-01-30T12:48:00.887Z,14.33
2019-01-30T12:50:30.878Z,16.70
2019-01-30T12:52:59.953Z,14.93
2019-01-30T12:55:29.668Z,16.87
2019-01-30T12:57:59.009Z,16.90
2019-01-30T13:00:31.009Z,20.10
2019-01-30T13:03:00.151Z,16.43
2019-01-30T13:05:29.583Z,15.70
2019-01-30T13:07:58.718Z,18.30
2019-01-30T13:10:27.924Z,17.67
2019-01-30T13:12:57.061Z,16.63
2019-01-30T13:15:27.172Z,17.83
2019-01-30T13:17:56.598Z,19.40
2019-01-30T13:20:25.794Z,16.83
2019-01-30T13:22:55.291Z,20.07
2019-01-30T13:25:29.926Z,21.57
2019-01-30T13:27:59.231Z,19.20
2019-01-30T13:30:33.769Z,19.33
2019-01-30T13:33:03.786Z,16.23
2019-01-30T13:35:34.053Z,19.47
2019-01-30T13:38:03.224Z,18.23
2019-01-30T13:40:34.592Z,16.90
2019-01-30T13:43:04.622Z,21.47
2019-01-30T13:45:34.054Z,18.33
2019-01-30T13:48:03.361Z,18.67
2019-01-30T13:50:33.677Z,18.00
2019-01-30T13:53:02.875Z,19.37
2019-01-30T13:55:32.035Z,19.47
2019-01-30T13:58:01.161Z,20.17
2019-01-30T14:00:34.944Z,17.30
2019-01-30T14:03:04.353Z,20.90
2019-01-30T14:05:33.733Z,20.23
2019-01-30T14:08:05.041Z,17.77
2019-01-30T14:10:33.872Z,18.50
2019-01-30T14:13:03.092Z,15.73
2019-01-30T14:15:32.465Z,22.43
2019-01-30T14:18:01.574Z,17.97
2019-01-30T14:20:30.690Z,20.73
2019-01-30T14:22:59.800Z,19.53
2019-01-30T14:25:28.953Z,21.10
2019-01-30T14:27:58.027Z,23.37
2019-01-30T14:30:32.306Z,22.20
2019-01-30T14:33:01.453Z,20.87
2019-01-30T14:35:33.014Z,20.17
2019-01-30T14:38:02.176Z,23.43
2019-01-30T14:40:31.348Z,23.33
2019-01-30T14:43:00.576Z,22.40
2019-01-30T14:45:29.681Z,23.27
2019-01-30T14:47:58.834Z,22.27
2019-01-30T14:50:28.451Z,20.97
2019-01-30T14:52:57.588Z,19.73
2019-01-30T14:55:26.724Z,22.53
2019-01-30T14:57:56.093Z,20.37
2019-01-30T15:00:30.032Z,20.27
2019-01-30T15:02:59.519Z,22.60
2019-01-30T15:05:29.397Z,21.73
2019-01-30T15:07:58.760Z,17.60
2019-01-30T15:10:28.466Z,17.77
2019-01-30T15:12:57.695Z,21.70
2019-01-30T15:15:28.786Z,24.37
2019-01-30T15:17:58.333Z,20.50
2019-01-30T15:20:29.533Z,23.13
2019-01-30T15:22:59.112Z,20.50
2019-01-30T15:25:28.882Z,18.30
2019-01-30T15:27:59.038Z,20.00
2019-01-30T15:30:30.840Z,22.23
2019-01-30T15:33:00.081Z,21.07
2019-01-30T15:35:33.776Z,20.60
2019-01-30T15:38:01.006Z,17.50
2019-01-30T15:40:30.376Z,21.33
2019-01-30T15:42:59.485Z,20.23
2019-01-30T15:45:28.778Z,19.43
2019-01-30T15:47:57.828Z,19.90
2019-01-30T15:50:30.150Z,19.63
2019-01-30T15:53:00.680Z,17.27
2019-01-30T15:55:29.943Z,20.90
2019-01-30T15:58:02.175Z,16.53
2019-01-30T16:00:42.656Z,15.80
2019-01-30T16:03:11.814Z,13.97
2019-01-30T16:05:44.907Z,15.00
2019-01-30T16:08:11.875Z,18.63
2019-01-30T16:10:41.060Z,15.53
2019-01-30T16:13:10.496Z,14.57
2019-01-30T16:15:42.991Z,18.27
2019-01-30T16:18:17.592Z,15.30
2019-01-30T16:20:46.805Z,14.43
2019-01-30T16:23:16.185Z,14.17
2019-01-30T16:25:45.441Z,15.03
2019-01-30T16:28:14.581Z,13.43
2019-01-30T16:30:43.764Z,13.83
2019-01-30T16:33:12.856Z,15.20
2019-01-30T16:35:41.912Z,16.17
2019-01-30T16:38:11.057Z,13.13
2019-01-30T16:40:40.254Z,12.70
2019-01-30T16:43:09.439Z,16.27
2019-01-30T16:45:39.007Z,13.03
2019-01-30T16:48:08.668Z,13.93
2019-01-30T16:50:37.978Z,13.97
2019-01-30T16:53:08.561Z,15.40
2019-01-30T16:55:38.143Z,20.23
2019-01-30T16:58:09.345Z,18.40
2019-01-30T17:00:38.508Z,14.73
2019-01-30T17:03:08.039Z,16.60
2019-01-30T17:05:37.562Z,18.20
2019-01-30T17:08:07.816Z,14.67
2019-01-30T17:10:37.127Z,16.83
2019-01-30T17:13:06.919Z,21.00
2019-01-30T17:15:36.728Z,15.80
2019-01-30T17:18:07.169Z,14.07
2019-01-30T17:20:37.498Z,18.43
2019-01-30T17:23:06.780Z,16.87
2019-01-30T17:25:36.203Z,14.83
2019-01-30T17:28:05.866Z,16.43
2019-01-30T17:31:04.632Z,15.33
2019-01-30T17:33:33.942Z,16.50
2019-01-30T17:36:02.925Z,17.43
2019-01-30T17:38:32.069Z,15.23
2019-01-30T17:41:01.273Z,16.07
2019-01-30T17:43:30.364Z,19.73
2019-01-30T17:45:59.547Z,17.53
2019-01-30T17:48:28.738Z,15.73
2019-01-30T17:50:57.942Z,18.20
2019-01-30T17:53:27.092Z,17.37
2019-01-30T17:55:56.135Z,17.90
2019-01-30T17:58:25.308Z,20.63
2019-01-30T18:01:03.791Z,20.63
2019-01-30T18:03:33.064Z,20.33
2019-01-30T18:06:02.102Z,22.87
2019-01-30T18:08:31.279Z,17.63
2019-01-30T18:11:01.625Z,19.87
2019-01-30T18:13:31.364Z,24.47
2019-01-30T18:16:00.567Z,20.00
2019-01-30T18:18:29.893Z,22.40
2019-01-30T18:21:02.887Z,21.90
2019-01-30T18:23:32.187Z,21.27
2019-01-30T18:26:01.466Z,19.43
2019-01-30T18:28:30.807Z,22.57
2019-01-30T18:31:01.110Z,21.27
2019-01-30T18:33:30.179Z,21.70
2019-01-30T18:36:01.193Z,21.13
2019-01-30T18:38:30.329Z,22.87
2019-01-30T18:40:59.545Z,22.50
2019-01-30T18:43:28.757Z,24.13
2019-01-30T18:45:58.897Z,21.13
2019-01-30T18:48:28.280Z,20.70
2019-01-30T18:50:57.521Z,26.50
2019-01-30T18:53:26.695Z,23.33
2019-01-30T18:55:55.928Z,23.23
2019-01-30T18:58:31.381Z,26.50
2019-01-30T19:00:56.276Z,27.77
2019-01-30T19:03:25.401Z,25.67
2019-01-30T19:05:54.628Z,27.13
2019-01-30T19:08:23.770Z,25.90
2019-01-30T19:10:52.901Z,25.90
2019-01-30T19:13:22.036Z,23.97
2019-01-30T19:15:51.433Z,26.17
2019-01-30T19:18:20.557Z,29.27
2019-01-30T19:20:50.332Z,25.37
2019-01-30T19:23:19.651Z,27.43
2019-01-30T19:25:48.685Z,26.60
2019-01-30T19:28:17.832Z,26.97
2019-01-30T19:30:47.019Z,28.70
2019-01-30T19:33:16.170Z,28.83
2019-01-30T19:35:45.245Z,31.80
2019-01-30T19:38:14.380Z,27.83
2019-01-30T19:40:44.409Z,28.30
2019-01-30T19:43:13.549Z,28.53
2019-01-30T19:45:42.763Z,29.63
2019-01-30T19:48:11.993Z,30.07
2019-01-30T19:50:41.145Z,33.27
2019-01-30T19:53:10.536Z,30.07
2019-01-30T19:55:39.732Z,32.57
2019-01-30T19:58:09.026Z,34.80
2019-01-30T20:00:56.343Z,42.67
2019-01-30T20:03:31.262Z,49.57
2019-01-30T20:06:00.190Z,47.47
2019-01-30T20:08:29.337Z,41.23
2019-01-30T20:10:58.559Z,40.37
2019-01-30T20:13:27.748Z,37.23
2019-01-30T20:15:56.933Z,37.13
2019-01-30T20:18:26.059Z,34.30
2019-01-30T20:20:55.271Z,34.97
2019-01-30T20:23:24.283Z,36.23
2019-01-30T20:25:53.486Z,34.00
2019-01-30T20:28:23.161Z,35.87
2019-01-30T20:30:52.457Z,34.07
2019-01-30T20:33:21.650Z,35.83
2019-01-30T20:35:50.660Z,38.83
2019-01-30T20:38:20.157Z,39.27
2019-01-30T20:40:49.234Z,39.50
2019-01-30T20:43:18.321Z,38.77
2019-01-30T20:45:47.718Z,41.03
2019-01-30T20:48:16.940Z,35.97
2019-01-30T20:50:46.020Z,43.80
2019-01-30T20:53:15.153Z,40.77
2019-01-30T20:55:44.169Z,39.07
2019-01-30T20:58:13.527Z,41.60
2019-01-30T21:00:43.004Z,38.30
2019-01-30T21:03:12.027Z,40.90
2019-01-30T21:05:41.110Z,40.90
2019-01-30T21:08:10.276Z,42.10
2019-01-30T21:10:41.332Z,38.07
2019-01-30T21:13:13.743Z,38.07
2019-01-30T21:15:42.914Z,38.13
2019-01-30T21:18:12.041Z,41.17
2019-01-30T21:20:41.233Z,43.97
2019-01-30T21:23:11.752Z,42.60
2019-01-30T21:25:41.071Z,42.60
2019-01-30T21:28:10.187Z,40.17
2019-01-30T21:30:39.692Z,43.40
2019-01-30T21:33:09.398Z,46.43
2019-01-30T21:35:39.641Z,39.30
2019-01-30T21:38:09.213Z,41.63
2019-01-30T21:40:38.241Z,42.43
2019-01-30T21:43:07.593Z,48.23
2019-01-30T21:45:36.863Z,41.57
2019-01-30T21:48:06.480Z,45.53
2019-01-30T21:50:35.564Z,43.23
2019-01-30T21:53:05.070Z,51.50
2019-01-30T21:55:34.281Z,51.63
2019-01-30T21:58:03.594Z,52.90
2019-01-30T22:00:32.923Z,47.07
2019-01-30T22:03:02.041Z,49.23
2019-01-30T22:05:33.218Z,49.90
2019-01-30T22:08:02.056Z,47.40
2019-01-30T22:10:31.216Z,47.53
2019-01-30T22:13:00.845Z,45.67
2019-01-30T22:15:29.811Z,52.93
2019-01-30T22:17:58.796Z,50.37
2019-01-30T22:20:28.148Z,45.00
2019-01-30T22:23:05.036Z,47.30
2019-01-30T22:25:34.049Z,43.20
2019-01-30T22:28:04.699Z,47.73
2019-01-30T22:30:35.457Z,43.90
2019-01-30T22:33:05.099Z,45.90
2019-01-30T22:35:34.204Z,50.00
2019-01-30T22:38:12.276Z,48.93
2019-01-30T22:40:34.073Z,54.53
2019-01-30T22:43:05.131Z,46.60
2019-01-30T22:45:34.487Z,54.80
2019-01-30T22:48:03.718Z,48.60
2019-01-30T22:50:32.788Z,51.93
2019-01-30T22:53:01.896Z,50.63
2019-01-30T22:55:31.002Z,51.13
2019-01-30T22:58:00.154Z,48.77
2019-01-30T23:01:02.501Z,45.43
2019-01-30T23:03:45.374Z,51.47
2019-01-30T23:06:41.142Z,50.63
2019-01-30T23:09:56.712Z,51.67
2019-01-30T23:13:16.506Z,53.30
2019-01-30T23:16:22.489Z,50.07
2019-01-30T23:19:32.901Z,50.67
2019-01-30T23:22:16.116Z,47.73
2019-01-30T23:25:20.097Z,47.63
2019-01-30T23:27:56.288Z,47.30
2019-01-30T23:30:51.190Z,48.50
2019-01-30T23:33:49.444Z,55.07
2019-01-30T23:36:56.049Z,52.10
2019-01-30T23:39:50.646Z,47.10
2019-01-30T23:42:50.173Z,51.57
2019-01-30T23:45:25.770Z,46.97
2019-01-30T23:48:22.689Z,48.80
2019-01-30T23:51:41.805Z,50.07
2019-01-30T23:55:05.073Z,45.57
2019-01-30T23:58:15.925Z,47.80
